sensor_id;sensor_type;location;lat;lon;timestamp;P1;durP1;ratioP1;P2;durP2;ratioP2
43337;SDS011;28933;52.492;13.434;2024-03-07T11:21:07;12.43;;;8.82;;
43337;SDS011;28933;52.492;13.434;2024-03-07T11:24:26;13.00;;;9.55;;
43337;SDS011;28933;52.492;13.434;2024-03-07T11:27:13;17.45;;;10.65;;
43337;SDS011;28933;52.492;13.434;2024-03-07T11:30:06;16.05;;;10.45;;
43337;SDS011;28933;52.492;13.434;2024-03-07T11:32:53;14.82;;;10.13;;
43337;SDS011;28933;52.492;13.434;2024-03-07T11:35:40;13.48;;;9.82;;
43337;SDS011;28933;52.492;13.434;2024-03-07T11:38:34;16.55;;;10.55;;
43337;SDS011;28933;52.492;13.434;2024-03-07T11:41:20;14.00;;;9.45;;
43337;SDS011;28933;52.492;13.434;2024-03-07T11:44:06;15.23;;;9.63;;
43337;SDS011;28933;52.492;13.434;2024-03-07T11:46:57;16.92;;;9.82;;
43337;SDS011;28933;52.492;13.434;2024-03-07T11:49:44;14.40;;;8.98;;
43337;SDS011;28933;52.492;13.434;2024-03-07T11:52:35;15.77;;;10.80;;
43337;SDS011;28933;52.492;13.434;2024-03-07T11:55:22;15.98;;;10.20;;
43337;SDS011;28933;52.492;13.434;2024-03-07T11:58:12;13.90;;;10.27;;
43337;SDS011;28933;52.492;13.434;2024-03-07T12:00:58;16.23;;;9.20;;
43337;SDS011;28933;52.492;13.434;2024-03-07T12:03:44;14.68;;;9.70;;
43337;SDS011;28933;52.492;13.434;2024-03-07T12:06:35;13.25;;;9.68;;
43337;SDS011;28933;52.492;13.434;2024-03-07T12:09:23;13.70;;;10.02;;
43337;SDS011;28933;52.492;13.434;2024-03-07T12:12:09;14.32;;;9.88;;
43337;SDS011;28933;52.492;13.434;2024-03-07T12:14:55;14.93;;;10.75;;
43337;SDS011;28933;52.492;13.434;2024-03-07T12:17:42;17.73;;;9.55;;
43337;SDS011;28933;52.492;13.434;2024-03-07T12:20:28;17.42;;;10.20;;
43337;SDS011;28933;52.492;13.434;2024-03-07T12:23:18;13.73;;;9.95;;
43337;SDS011;28933;52.492;13.434;2024-03-07T12:26:04;18.13;;;10.25;;
43337;SDS011;28933;52.492;13.434;2024-03-07T12:28:52;14.68;;;9.85;;
43337;SDS011;28933;52.492;13.434;2024-03-07T12:31:39;15.20;;;10.35;;
43337;SDS011;28933;52.492;13.434;2024-03-07T12:34:25;16.08;;;10.68;;
43337;SDS011;28933;52.492;13.434;2024-03-07T12:37:15;19.65;;;12.18;;
43337;SDS011;28933;52.492;13.434;2024-03-07T12:40:10;15.32;;;9.90;;
43337;SDS011;28933;52.492;13.434;2024-03-07T12:43:16;15.80;;;10.95;;
43337;SDS011;28933;52.492;13.434;2024-03-07T12:46:05;13.02;;;10.32;;
43337;SDS011;28933;52.492;13.434;2024-03-07T12:48:51;17.73;;;10.88;;
43337;SDS011;28933;52.492;13.434;2024-03-07T12:51:37;16.88;;;10.18;;
43337;SDS011;28933;52.492;13.434;2024-03-07T12:54:23;16.25;;;10.95;;
43337;SDS011;28933;52.492;13.434;2024-03-07T12:57:10;18.50;;;11.95;;
43337;SDS011;28933;52.492;13.434;2024-03-07T12:59:56;18.77;;;11.60;;
43337;SDS011;28933;52.492;13.434;2024-03-07T13:02:42;16.35;;;10.70;;
43337;SDS011;28933;52.492;13.434;2024-03-07T13:05:30;17.50;;;11.63;;
43337;SDS011;28933;52.492;13.434;2024-03-07T13:08:16;18.08;;;13.15;;
43337;SDS011;28933;52.492;13.434;2024-03-07T13:11:02;18.80;;;12.88;;
43337;SDS011;28933;52.492;13.434;2024-03-07T13:13:48;19.67;;;12.32;;
43337;SDS011;28933;52.492;13.434;2024-03-07T13:16:34;19.50;;;13.32;;
43337;SDS011;28933;52.492;13.434;2024-03-07T13:19:20;18.42;;;12.05;;
43337;SDS011;28933;52.492;13.434;2024-03-07T13:22:06;17.30;;;11.15;;
43337;SDS011;28933;52.492;13.434;2024-03-07T13:24:52;17.05;;;10.32;;
43337;SDS011;28933;52.492;13.434;2024-03-07T13:27:38;15.02;;;10.70;;
43337;SDS011;28933;52.492;13.434;2024-03-07T13:30:43;14.77;;;10.02;;
43337;SDS011;28933;52.492;13.434;2024-03-07T13:33:32;14.85;;;9.73;;
43337;SDS011;28933;52.492;13.434;2024-03-07T13:36:18;13.98;;;9.82;;
43337;SDS011;28933;52.492;13.434;2024-03-07T13:39:13;19.27;;;11.25;;
43337;SDS011;28933;52.492;13.434;2024-03-07T13:42:02;14.23;;;9.95;;
43337;SDS011;28933;52.492;13.434;2024-03-07T13:44:50;14.75;;;10.40;;
43337;SDS011;28933;52.492;13.434;2024-03-07T13:47:36;14.30;;;9.60;;
43337;SDS011;28933;52.492;13.434;2024-03-07T13:50:23;14.40;;;9.68;;
43337;SDS011;28933;52.492;13.434;2024-03-07T13:53:13;14.48;;;9.68;;
43337;SDS011;28933;52.492;13.434;2024-03-07T14:08:27;13.90;;;10.13;;
43337;SDS011;28933;52.492;13.434;2024-03-07T14:11:41;15.05;;;9.95;;
43337;SDS011;28933;52.492;13.434;2024-03-07T14:18:54;19.30;;;11.13;;
43337;SDS011;28933;52.492;13.434;2024-03-07T14:21:45;16.80;;;9.82;;
43337;SDS011;28933;52.492;13.434;2024-03-07T14:27:50;14.75;;;9.93;;
43337;SDS011;28933;52.492;13.434;2024-03-07T14:30:55;15.18;;;10.63;;
43337;SDS011;28933;52.492;13.434;2024-03-07T14:36:56;17.23;;;11.50;;
43337;SDS011;28933;52.492;13.434;2024-03-07T14:39:50;14.68;;;10.75;;
43337;SDS011;28933;52.492;13.434;2024-03-07T14:42:41;14.63;;;10.50;;
43337;SDS011;28933;52.492;13.434;2024-03-07T14:45:36;17.52;;;10.77;;
43337;SDS011;28933;52.492;13.434;2024-03-07T14:48:24;13.85;;;9.90;;
43337;SDS011;28933;52.492;13.434;2024-03-07T14:51:11;14.60;;;10.07;;
43337;SDS011;28933;52.492;13.434;2024-03-07T14:53:58;16.35;;;11.93;;
43337;SDS011;28933;52.492;13.434;2024-03-07T14:56:46;17.00;;;11.50;;
43337;SDS011;28933;52.492;13.434;2024-03-07T14:59:32;16.90;;;11.05;;
43337;SDS011;28933;52.492;13.434;2024-03-07T15:02:18;16.25;;;10.68;;
43337;SDS011;28933;52.492;13.434;2024-03-07T15:05:06;16.90;;;10.98;;
43337;SDS011;28933;52.492;13.434;2024-03-07T15:07:53;16.25;;;11.23;;
43337;SDS011;28933;52.492;13.434;2024-03-07T15:10:44;15.90;;;11.35;;
43337;SDS011;28933;52.492;13.434;2024-03-07T15:13:36;17.48;;;11.13;;
43337;SDS011;28933;52.492;13.434;2024-03-07T15:16:23;15.85;;;9.80;;
43337;SDS011;28933;52.492;13.434;2024-03-07T15:19:09;16.58;;;10.25;;
43337;SDS011;28933;52.492;13.434;2024-03-07T15:21:55;19.60;;;11.23;;
43337;SDS011;28933;52.492;13.434;2024-03-07T15:24:41;17.05;;;11.30;;
43337;SDS011;28933;52.492;13.434;2024-03-07T15:27:28;16.50;;;11.18;;
43337;SDS011;28933;52.492;13.434;2024-03-07T15:30:17;16.40;;;11.10;;
43337;SDS011;28933;52.492;13.434;2024-03-07T15:33:04;15.40;;;10.85;;
43337;SDS011;28933;52.492;13.434;2024-03-07T15:35:50;15.80;;;9.82;;
43337;SDS011;28933;52.492;13.434;2024-03-07T15:38:37;15.15;;;9.45;;
43337;SDS011;28933;52.492;13.434;2024-03-07T15:41:23;16.38;;;10.57;;
43337;SDS011;28933;52.492;13.434;2024-03-07T15:44:10;15.15;;;9.60;;
43337;SDS011;28933;52.492;13.434;2024-03-07T15:46:57;16.65;;;9.98;;
43337;SDS011;28933;52.492;13.434;2024-03-07T15:49:43;15.25;;;9.70;;
43337;SDS011;28933;52.492;13.434;2024-03-07T15:52:29;13.35;;;9.27;;
43337;SDS011;28933;52.492;13.434;2024-03-07T15:55:15;13.68;;;9.45;;
43337;SDS011;28933;52.492;13.434;2024-03-07T15:58:01;12.07;;;9.13;;
43337;SDS011;28933;52.492;13.434;2024-03-07T16:00:51;16.15;;;10.18;;
43337;SDS011;28933;52.492;13.434;2024-03-07T16:03:37;17.00;;;9.57;;
43337;SDS011;28933;52.492;13.434;2024-03-07T16:06:24;15.80;;;10.45;;
43337;SDS011;28933;52.492;13.434;2024-03-07T16:09:10;15.40;;;9.93;;
43337;SDS011;28933;52.492;13.434;2024-03-07T16:11:58;17.23;;;10.57;;
43337;SDS011;28933;52.492;13.434;2024-03-07T16:14:44;13.07;;;9.68;;
43337;SDS011;28933;52.492;13.434;2024-03-07T16:17:30;14.98;;;9.75;;
43337;SDS011;28933;52.492;13.434;2024-03-07T16:20:16;16.42;;;10.60;;
43337;SDS011;28933;52.492;13.434;2024-03-07T16:23:02;15.93;;;10.60;;
43337;SDS011;28933;52.492;13.434;2024-03-07T16:25:51;17.45;;;10.65;;
43337;SDS011;28933;52.492;13.434;2024-03-07T16:28:37;16.17;;;9.70;;
43337;SDS011;28933;52.492;13.434;2024-03-07T16:31:23;16.85;;;10.48;;
43337;SDS011;28933;52.492;13.434;2024-03-07T16:34:12;18.33;;;11.30;;
43337;SDS011;28933;52.492;13.434;2024-03-07T16:36:58;14.50;;;9.30;;
43337;SDS011;28933;52.492;13.434;2024-03-07T16:39:44;16.58;;;9.82;;
43337;SDS011;28933;52.492;13.434;2024-03-07T16:42:30;16.25;;;11.40;;
43337;SDS011;28933;52.492;13.434;2024-03-07T16:45:17;14.77;;;10.25;;
43337;SDS011;28933;52.492;13.434;2024-03-07T16:48:05;16.30;;;10.18;;
43337;SDS011;28933;52.492;13.434;2024-03-07T16:50:54;17.75;;;11.50;;
43337;SDS011;28933;52.492;13.434;2024-03-07T16:53:43;14.93;;;10.65;;
43337;SDS011;28933;52.492;13.434;2024-03-07T16:56:29;17.55;;;10.07;;
43337;SDS011;28933;52.492;13.434;2024-03-07T16:59:22;18.27;;;11.05;;
43337;SDS011;28933;52.492;13.434;2024-03-07T17:02:08;17.42;;;10.70;;
43337;SDS011;28933;52.492;13.434;2024-03-07T17:04:55;13.77;;;10.00;;
43337;SDS011;28933;52.492;13.434;2024-03-07T17:07:43;16.48;;;11.18;;
43337;SDS011;28933;52.492;13.434;2024-03-07T17:10:32;14.45;;;10.05;;
43337;SDS011;28933;52.492;13.434;2024-03-07T17:13:24;14.98;;;10.07;;
43337;SDS011;28933;52.492;13.434;2024-03-07T17:16:11;15.10;;;11.13;;
43337;SDS011;28933;52.492;13.434;2024-03-07T17:18:57;15.55;;;10.82;;
43337;SDS011;28933;52.492;13.434;2024-03-07T17:21:45;16.85;;;11.05;;
43337;SDS011;28933;52.492;13.434;2024-03-07T17:24:31;16.48;;;10.77;;
43337;SDS011;28933;52.492;13.434;2024-03-07T17:27:18;15.30;;;10.25;;
43337;SDS011;28933;52.492;13.434;2024-03-07T17:30:04;17.40;;;10.48;;
43337;SDS011;28933;52.492;13.434;2024-03-07T17:32:53;19.52;;;11.65;;
43337;SDS011;28933;52.492;13.434;2024-03-07T17:35:42;14.85;;;10.85;;
43337;SDS011;28933;52.492;13.434;2024-03-07T17:38:30;19.42;;;10.65;;
43337;SDS011;28933;52.492;13.434;2024-03-07T17:41:18;17.23;;;11.38;;
43337;SDS011;28933;52.492;13.434;2024-03-07T17:44:04;15.52;;;10.52;;
43337;SDS011;28933;52.492;13.434;2024-03-07T17:46:57;18.27;;;11.32;;
43337;SDS011;28933;52.492;13.434;2024-03-07T17:49:43;18.50;;;12.32;;
43337;SDS011;28933;52.492;13.434;2024-03-07T17:52:29;17.05;;;11.38;;
43337;SDS011;28933;52.492;13.434;2024-03-07T17:55:15;18.95;;;12.00;;
43337;SDS011;28933;52.492;13.434;2024-03-07T17:58:02;15.75;;;11.18;;
43337;SDS011;28933;52.492;13.434;2024-03-07T18:00:51;16.98;;;11.02;;
43337;SDS011;28933;52.492;13.434;2024-03-07T18:03:37;17.77;;;11.55;;
43337;SDS011;28933;52.492;13.434;2024-03-07T18:06:23;16.02;;;11.00;;
43337;SDS011;28933;52.492;13.434;2024-03-07T18:09:09;23.33;;;14.55;;
43337;SDS011;28933;52.492;13.434;2024-03-07T18:12:13;19.23;;;12.63;;
43337;SDS011;28933;52.492;13.434;2024-03-07T18:15:00;18.83;;;11.45;;
43337;SDS011;28933;52.492;13.434;2024-03-07T18:17:46;17.05;;;11.07;;
43337;SDS011;28933;52.492;13.434;2024-03-07T18:20:39;19.83;;;11.93;;
43337;SDS011;28933;52.492;13.434;2024-03-07T18:23:25;20.60;;;11.63;;
43337;SDS011;28933;52.492;13.434;2024-03-07T18:26:14;19.52;;;13.15;;
43337;SDS011;28933;52.492;13.434;2024-03-07T18:29:00;17.85;;;12.07;;
43337;SDS011;28933;52.492;13.434;2024-03-07T18:31:48;17.48;;;12.35;;
43337;SDS011;28933;52.492;13.434;2024-03-07T18:34:35;17.80;;;11.52;;
43337;SDS011;28933;52.492;13.434;2024-03-07T18:37:22;18.48;;;11.38;;
43337;SDS011;28933;52.492;13.434;2024-03-07T18:40:11;16.05;;;11.23;;
43337;SDS011;28933;52.492;13.434;2024-03-07T18:43:02;18.08;;;12.30;;
43337;SDS011;28933;52.492;13.434;2024-03-07T18:45:52;20.35;;;12.05;;
43337;SDS011;28933;52.492;13.434;2024-03-07T18:48:38;17.23;;;11.23;;
43337;SDS011;28933;52.492;13.434;2024-03-07T18:51:25;18.70;;;11.38;;
43337;SDS011;28933;52.492;13.434;2024-03-07T18:54:11;16.85;;;11.45;;
43337;SDS011;28933;52.492;13.434;2024-03-07T18:57:02;19.40;;;12.30;;
43337;SDS011;28933;52.492;13.434;2024-03-07T18:59:52;14.73;;;10.40;;
43337;SDS011;28933;52.492;13.434;2024-03-07T19:02:38;18.67;;;11.57;;
43337;SDS011;28933;52.492;13.434;2024-03-07T19:05:26;18.15;;;12.48;;
43337;SDS011;28933;52.492;13.434;2024-03-07T19:08:19;20.73;;;11.38;;
43337;SDS011;28933;52.492;13.434;2024-03-07T19:11:05;17.58;;;11.80;;
43337;SDS011;28933;52.492;13.434;2024-03-07T19:13:56;17.40;;;12.23;;
43337;SDS011;28933;52.492;13.434;2024-03-07T19:16:48;18.55;;;12.10;;
43337;SDS011;28933;52.492;13.434;2024-03-07T19:19:34;16.45;;;12.02;;
43337;SDS011;28933;52.492;13.434;2024-03-07T19:22:20;17.00;;;10.68;;
43337;SDS011;28933;52.492;13.434;2024-03-07T19:25:06;21.08;;;13.25;;
43337;SDS011;28933;52.492;13.434;2024-03-07T19:27:52;23.67;;;16.05;;
43337;SDS011;28933;52.492;13.434;2024-03-07T19:30:39;24.45;;;13.43;;
43337;SDS011;28933;52.492;13.434;2024-03-07T19:33:32;21.05;;;13.15;;
43337;SDS011;28933;52.492;13.434;2024-03-07T19:36:20;19.05;;;12.45;;
43337;SDS011;28933;52.492;13.434;2024-03-07T19:39:06;19.50;;;12.13;;
43337;SDS011;28933;52.492;13.434;2024-03-07T19:41:57;21.65;;;12.95;;
43337;SDS011;28933;52.492;13.434;2024-03-07T19:44:43;18.30;;;10.85;;
43337;SDS011;28933;52.492;13.434;2024-03-07T19:47:29;20.88;;;12.25;;
43337;SDS011;28933;52.492;13.434;2024-03-07T19:50:16;19.60;;;11.25;;
43337;SDS011;28933;52.492;13.434;2024-03-07T19:53:02;21.02;;;12.38;;
43337;SDS011;28933;52.492;13.434;2024-03-07T19:55:48;16.63;;;11.80;;
43337;SDS011;28933;52.492;13.434;2024-03-07T19:58:34;20.02;;;13.05;;
43337;SDS011;28933;52.492;13.434;2024-03-07T20:01:20;20.55;;;11.32;;
43337;SDS011;28933;52.492;13.434;2024-03-07T20:04:07;19.13;;;12.68;;
43337;SDS011;28933;52.492;13.434;2024-03-07T20:06:54;17.00;;;11.60;;
43337;SDS011;28933;52.492;13.434;2024-03-07T20:09:40;18.13;;;11.82;;
43337;SDS011;28933;52.492;13.434;2024-03-07T20:12:28;23.65;;;12.90;;
43337;SDS011;28933;52.492;13.434;2024-03-07T20:15:14;19.55;;;12.18;;
43337;SDS011;28933;52.492;13.434;2024-03-07T20:18:00;20.17;;;12.98;;
43337;SDS011;28933;52.492;13.434;2024-03-07T20:20:47;20.20;;;12.07;;
43337;SDS011;28933;52.492;13.434;2024-03-07T20:23:35;20.02;;;12.85;;
43337;SDS011;28933;52.492;13.434;2024-03-07T20:26:20;21.83;;;13.88;;
43337;SDS011;28933;52.492;13.434;2024-03-07T20:29:06;20.38;;;13.85;;
43337;SDS011;28933;52.492;13.434;2024-03-07T20:31:53;20.25;;;13.88;;
43337;SDS011;28933;52.492;13.434;2024-03-07T20:34:39;22.17;;;13.63;;
43337;SDS011;28933;52.492;13.434;2024-03-07T20:37:26;19.98;;;13.48;;
43337;SDS011;28933;52.492;13.434;2024-03-07T20:40:17;22.77;;;14.50;;
43337;SDS011;28933;52.492;13.434;2024-03-07T20:43:06;20.88;;;14.00;;
43337;SDS011;28933;52.492;13.434;2024-03-07T20:45:52;24.38;;;14.95;;
43337;SDS011;28933;52.492;13.434;2024-03-07T20:48:41;19.88;;;13.07;;
43337;SDS011;28933;52.492;13.434;2024-03-07T20:51:30;19.60;;;13.23;;
43337;SDS011;28933;52.492;13.434;2024-03-07T20:54:21;20.85;;;13.10;;
43337;SDS011;28933;52.492;13.434;2024-03-07T20:57:07;21.17;;;12.95;;
43337;SDS011;28933;52.492;13.434;2024-03-07T20:59:53;20.80;;;12.80;;
43337;SDS011;28933;52.492;13.434;2024-03-07T21:02:40;21.52;;;14.07;;
43337;SDS011;28933;52.492;13.434;2024-03-07T21:05:30;20.50;;;13.30;;
43337;SDS011;28933;52.492;13.434;2024-03-07T21:08:19;20.85;;;12.68;;
43337;SDS011;28933;52.492;13.434;2024-03-07T21:11:06;20.70;;;13.85;;
43337;SDS011;28933;52.492;13.434;2024-03-07T21:13:54;24.60;;;13.68;;
43337;SDS011;28933;52.492;13.434;2024-03-07T21:16:43;19.35;;;13.02;;
43337;SDS011;28933;52.492;13.434;2024-03-07T21:19:30;19.10;;;13.43;;
43337;SDS011;28933;52.492;13.434;2024-03-07T21:22:16;23.95;;;13.38;;
43337;SDS011;28933;52.492;13.434;2024-03-07T21:25:02;20.60;;;13.10;;
43337;SDS011;28933;52.492;13.434;2024-03-07T21:27:49;21.92;;;14.98;;
43337;SDS011;28933;52.492;13.434;2024-03-07T21:30:36;21.77;;;13.00;;
43337;SDS011;28933;52.492;13.434;2024-03-07T21:33:22;20.90;;;13.65;;
43337;SDS011;28933;52.492;13.434;2024-03-07T21:36:08;18.55;;;11.68;;
43337;SDS011;28933;52.492;13.434;2024-03-07T21:38:54;18.77;;;13.50;;
43337;SDS011;28933;52.492;13.434;2024-03-07T21:41:42;26.15;;;13.90;;
43337;SDS011;28933;52.492;13.434;2024-03-07T21:44:28;22.30;;;13.82;;
43337;SDS011;28933;52.492;13.434;2024-03-07T21:47:14;20.40;;;13.43;;
43337;SDS011;28933;52.492;13.434;2024-03-07T21:50:00;19.77;;;13.32;;
43337;SDS011;28933;52.492;13.434;2024-03-07T21:52:48;20.92;;;14.13;;
43337;SDS011;28933;52.492;13.434;2024-03-07T21:55:34;22.30;;;13.80;;
43337;SDS011;28933;52.492;13.434;2024-03-07T21:58:22;21.85;;;14.57;;
43337;SDS011;28933;52.492;13.434;2024-03-07T22:01:10;18.77;;;13.20;;
43337;SDS011;28933;52.492;13.434;2024-03-07T22:03:57;19.45;;;13.23;;
43337;SDS011;28933;52.492;13.434;2024-03-07T22:06:44;21.02;;;14.10;;
43337;SDS011;28933;52.492;13.434;2024-03-07T22:09:30;20.38;;;14.13;;
43337;SDS011;28933;52.492;13.434;2024-03-07T22:12:16;23.48;;;15.20;;
43337;SDS011;28933;52.492;13.434;2024-03-07T22:15:03;20.52;;;12.68;;
43337;SDS011;28933;52.492;13.434;2024-03-07T22:17:51;24.90;;;15.02;;
43337;SDS011;28933;52.492;13.434;2024-03-07T22:20:39;31.13;;;16.77;;
43337;SDS011;28933;52.492;13.434;2024-03-07T22:23:24;24.17;;;14.20;;
43337;SDS011;28933;52.492;13.434;2024-03-07T22:26:11;23.90;;;16.30;;
43337;SDS011;28933;52.492;13.434;2024-03-07T22:28:57;25.65;;;15.50;;
43337;SDS011;28933;52.492;13.434;2024-03-07T22:31:43;20.30;;;13.45;;
43337;SDS011;28933;52.492;13.434;2024-03-07T22:34:30;23.98;;;15.15;;
43337;SDS011;28933;52.492;13.434;2024-03-07T22:37:17;22.35;;;14.45;;
43337;SDS011;28933;52.492;13.434;2024-03-07T22:40:03;25.48;;;15.43;;
43337;SDS011;28933;52.492;13.434;2024-03-07T22:42:49;24.23;;;16.30;;
43337;SDS011;28933;52.492;13.434;2024-03-07T22:45:37;25.73;;;14.95;;
43337;SDS011;28933;52.492;13.434;2024-03-07T22:48:23;26.42;;;16.35;;
43337;SDS011;28933;52.492;13.434;2024-03-07T22:51:08;21.42;;;14.63;;
43337;SDS011;28933;52.492;13.434;2024-03-07T22:53:55;21.67;;;14.40;;
43337;SDS011;28933;52.492;13.434;2024-03-07T22:56:43;24.63;;;14.73;;
43337;SDS011;28933;52.492;13.434;2024-03-07T22:59:29;25.58;;;14.98;;
43337;SDS011;28933;52.492;13.434;2024-03-07T23:02:15;23.35;;;15.25;;
43337;SDS011;28933;52.492;13.434;2024-03-07T23:05:01;24.50;;;14.65;;
43337;SDS011;28933;52.492;13.434;2024-03-07T23:07:47;24.98;;;15.93;;
43337;SDS011;28933;52.492;13.434;2024-03-07T23:10:33;23.65;;;15.52;;
43337;SDS011;28933;52.492;13.434;2024-03-07T23:13:19;24.50;;;16.15;;
43337;SDS011;28933;52.492;13.434;2024-03-07T23:16:05;23.63;;;15.52;;
43337;SDS011;28933;52.492;13.434;2024-03-07T23:18:51;31.52;;;16.55;;
43337;SDS011;28933;52.492;13.434;2024-03-07T23:21:39;26.17;;;15.50;;
43337;SDS011;28933;52.492;13.434;2024-03-07T23:24:25;26.63;;;16.50;;
43337;SDS011;28933;52.492;13.434;2024-03-07T23:27:10;28.13;;;16.42;;
43337;SDS011;28933;52.492;13.434;2024-03-07T23:29:56;27.95;;;16.38;;
43337;SDS011;28933;52.492;13.434;2024-03-07T23:32:44;25.00;;;15.52;;
43337;SDS011;28933;52.492;13.434;2024-03-07T23:35:30;29.13;;;16.38;;
43337;SDS011;28933;52.492;13.434;2024-03-07T23:38:16;28.10;;;17.02;;
43337;SDS011;28933;52.492;13.434;2024-03-07T23:41:02;25.65;;;15.82;;
43337;SDS011;28933;52.492;13.434;2024-03-07T23:43:48;28.30;;;18.25;;
43337;SDS011;28933;52.492;13.434;2024-03-07T23:46:36;21.95;;;14.43;;
43337;SDS011;28933;52.492;13.434;2024-03-07T23:49:22;24.73;;;15.77;;
43337;SDS011;28933;52.492;13.434;2024-03-07T23:52:09;22.73;;;14.93;;
43337;SDS011;28933;52.492;13.434;2024-03-07T23:54:55;24.55;;;14.57;;
43337;SDS011;28933;52.492;13.434;2024-03-07T23:57:42;27.02;;;15.25;;
